sensor_id;sensor_type;location;lat;lon;timestamp;temperature;humidity
77052;SHT30;65980;44.898;8.602;2023-02-14T00:01:24;3.74;70.91
77052;SHT30;65980;44.898;8.602;2023-02-14T00:04:29;3.86;71.78
77052;SHT30;65980;44.898;8.602;2023-02-14T00:07:33;3.31;73.96
77052;SHT30;65980;44.898;8.602;2023-02-14T00:10:37;3.03;75.27
77052;SHT30;65980;44.898;8.602;2023-02-14T00:13:41;2.76;76.40
77052;SHT30;65980;44.898;8.602;2023-02-14T00:17:08;2.76;76.30
77052;SHT30;65980;44.898;8.602;2023-02-14T00:20:12;2.64;76.63
77052;SHT30;65980;44.898;8.602;2023-02-14T00:23:16;2.58;76.99
77052;SHT30;65980;44.898;8.602;2023-02-14T00:26:20;2.69;76.36
77052;SHT30;65980;44.898;8.602;2023-02-14T00:29:30;2.64;76.17
77052;SHT30;65980;44.898;8.602;2023-02-14T00:32:36;2.40;77.08
77052;SHT30;65980;44.898;8.602;2023-02-14T00:35:40;2.20;77.99
77052;SHT30;65980;44.898;8.602;2023-02-14T00:38:44;2.17;77.99
77052;SHT30;65980;44.898;8.602;2023-02-14T00:41:48;2.13;78.07
77052;SHT30;65980;44.898;8.602;2023-02-14T00:44:53;2.16;78.30
77052;SHT30;65980;44.898;8.602;2023-02-14T00:47:57;2.27;78.55
77052;SHT30;65980;44.898;8.602;2023-02-14T00:51:01;2.37;78.18
77052;SHT30;65980;44.898;8.602;2023-02-14T00:54:05;2.24;77.00
77052;SHT30;65980;44.898;8.602;2023-02-14T00:57:09;2.51;76.10
77052;SHT30;65980;44.898;8.602;2023-02-14T01:00:13;2.68;75.82
77052;SHT30;65980;44.898;8.602;2023-02-14T01:03:17;2.61;75.66
77052;SHT30;65980;44.898;8.602;2023-02-14T01:06:21;2.84;73.89
77052;SHT30;65980;44.898;8.602;2023-02-14T01:09:26;2.75;75.14
77052;SHT30;65980;44.898;8.602;2023-02-14T01:12:30;2.71;74.42
77052;SHT30;65980;44.898;8.602;2023-02-14T01:15:42;2.20;76.15
77052;SHT30;65980;44.898;8.602;2023-02-14T01:18:48;2.58;74.13
77052;SHT30;65980;44.898;8.602;2023-02-14T01:21:53;2.33;76.33
77052;SHT30;65980;44.898;8.602;2023-02-14T01:24:59;2.47;74.76
77052;SHT30;65980;44.898;8.602;2023-02-14T01:28:06;2.57;72.97
77052;SHT30;65980;44.898;8.602;2023-02-14T01:31:13;2.31;75.01
77052;SHT30;65980;44.898;8.602;2023-02-14T01:34:17;2.30;74.95
77052;SHT30;65980;44.898;8.602;2023-02-14T01:37:24;2.82;72.96
77052;SHT30;65980;44.898;8.602;2023-02-14T01:40:29;2.89;72.51
77052;SHT30;65980;44.898;8.602;2023-02-14T01:46:56;2.69;73.38
77052;SHT30;65980;44.898;8.602;2023-02-14T01:50:10;2.76;72.41
77052;SHT30;65980;44.898;8.602;2023-02-14T01:53:16;2.88;71.72
77052;SHT30;65980;44.898;8.602;2023-02-14T01:56:26;2.52;73.23
77052;SHT30;65980;44.898;8.602;2023-02-14T01:59:33;2.81;72.64
77052;SHT30;65980;44.898;8.602;2023-02-14T02:02:39;3.04;71.29
77052;SHT30;65980;44.898;8.602;2023-02-14T02:05:47;3.02;71.27
77052;SHT30;65980;44.898;8.602;2023-02-14T02:12:08;2.97;71.06
77052;SHT30;65980;44.898;8.602;2023-02-14T02:15:13;2.38;73.49
77052;SHT30;65980;44.898;8.602;2023-02-14T02:18:21;2.24;74.50
77052;SHT30;65980;44.898;8.602;2023-02-14T02:40:41;2.89;71.78
77052;SHT30;65980;44.898;8.602;2023-02-14T02:46:54;2.24;73.89
77052;SHT30;65980;44.898;8.602;2023-02-14T02:53:50;1.36;77.37
77052;SHT30;65980;44.898;8.602;2023-02-14T02:56:56;1.23;77.62
77052;SHT30;65980;44.898;8.602;2023-02-14T03:00:03;1.74;75.31
77052;SHT30;65980;44.898;8.602;2023-02-14T03:03:08;1.55;77.10
77052;SHT30;65980;44.898;8.602;2023-02-14T03:06:32;1.67;76.74
77052;SHT30;65980;44.898;8.602;2023-02-14T03:19:51;1.93;75.38
77052;SHT30;65980;44.898;8.602;2023-02-14T03:30:02;1.59;76.09
77052;SHT30;65980;44.898;8.602;2023-02-14T03:33:18;1.22;77.73
77052;SHT30;65980;44.898;8.602;2023-02-14T03:36:26;0.88;79.64
77052;SHT30;65980;44.898;8.602;2023-02-14T03:42:50;1.06;78.84
77052;SHT30;65980;44.898;8.602;2023-02-14T03:49:22;1.37;79.48
77052;SHT30;65980;44.898;8.602;2023-02-14T03:52:29;1.43;78.23
77052;SHT30;65980;44.898;8.602;2023-02-14T03:55:36;1.69;76.82
77052;SHT30;65980;44.898;8.602;2023-02-14T03:58:44;1.81;76.38
77052;SHT30;65980;44.898;8.602;2023-02-14T04:02:06;1.87;76.31
77052;SHT30;65980;44.898;8.602;2023-02-14T04:05:12;1.87;75.46
77052;SHT30;65980;44.898;8.602;2023-02-14T04:08:22;2.07;75.66
77052;SHT30;65980;44.898;8.602;2023-02-14T04:11:26;2.12;73.39
77052;SHT30;65980;44.898;8.602;2023-02-14T04:14:31;1.91;76.07
77052;SHT30;65980;44.898;8.602;2023-02-14T04:17:36;1.72;75.82
77052;SHT30;65980;44.898;8.602;2023-02-14T04:20:59;1.95;74.14
77052;SHT30;65980;44.898;8.602;2023-02-14T04:24:05;2.23;73.13
77052;SHT30;65980;44.898;8.602;2023-02-14T04:27:10;2.06;75.16
77052;SHT30;65980;44.898;8.602;2023-02-14T04:30:14;2.17;74.42
77052;SHT30;65980;44.898;8.602;2023-02-14T04:33:20;1.65;75.04
77052;SHT30;65980;44.898;8.602;2023-02-14T04:36:24;1.40;76.51
77052;SHT30;65980;44.898;8.602;2023-02-14T04:39:28;1.34;77.65
77052;SHT30;65980;44.898;8.602;2023-02-14T04:42:32;1.89;75.16
77052;SHT30;65980;44.898;8.602;2023-02-14T04:45:35;1.83;73.43
77052;SHT30;65980;44.898;8.602;2023-02-14T04:48:40;1.17;75.75
77052;SHT30;65980;44.898;8.602;2023-02-14T04:51:44;0.89;76.68
77052;SHT30;65980;44.898;8.602;2023-02-14T04:54:49;0.92;76.57
77052;SHT30;65980;44.898;8.602;2023-02-14T04:57:53;0.92;77.44
77052;SHT30;65980;44.898;8.602;2023-02-14T05:00:58;1.19;76.00
77052;SHT30;65980;44.898;8.602;2023-02-14T05:04:02;1.02;77.37
77052;SHT30;65980;44.898;8.602;2023-02-14T05:07:06;1.17;75.05
77052;SHT30;65980;44.898;8.602;2023-02-14T05:10:10;1.41;75.12
77052;SHT30;65980;44.898;8.602;2023-02-14T05:13:14;0.97;76.98
77052;SHT30;65980;44.898;8.602;2023-02-14T05:16:18;1.22;77.33
77052;SHT30;65980;44.898;8.602;2023-02-14T05:19:22;1.29;77.36
77052;SHT30;65980;44.898;8.602;2023-02-14T05:22:27;1.16;77.04
77052;SHT30;65980;44.898;8.602;2023-02-14T05:25:31;0.86;78.94
77052;SHT30;65980;44.898;8.602;2023-02-14T05:28:36;0.72;78.43
77052;SHT30;65980;44.898;8.602;2023-02-14T05:31:40;1.22;76.56
77052;SHT30;65980;44.898;8.602;2023-02-14T05:34:45;1.13;76.84
77052;SHT30;65980;44.898;8.602;2023-02-14T05:37:50;1.09;77.51
77052;SHT30;65980;44.898;8.602;2023-02-14T05:40:54;1.00;77.70
77052;SHT30;65980;44.898;8.602;2023-02-14T05:43:59;0.91;79.37
77052;SHT30;65980;44.898;8.602;2023-02-14T05:47:03;0.81;78.34
77052;SHT30;65980;44.898;8.602;2023-02-14T05:50:07;0.86;77.90
77052;SHT30;65980;44.898;8.602;2023-02-14T05:53:12;0.56;79.37
77052;SHT30;65980;44.898;8.602;2023-02-14T05:56:17;0.84;78.56
77052;SHT30;65980;44.898;8.602;2023-02-14T05:59:21;1.16;76.68
77052;SHT30;65980;44.898;8.602;2023-02-14T06:02:25;1.33;75.37
77052;SHT30;65980;44.898;8.602;2023-02-14T06:05:30;1.36;74.49
77052;SHT30;65980;44.898;8.602;2023-02-14T06:08:34;1.36;74.53
77052;SHT30;65980;44.898;8.602;2023-02-14T06:11:38;1.57;72.97
77052;SHT30;65980;44.898;8.602;2023-02-14T06:14:43;0.39;76.88
77052;SHT30;65980;44.898;8.602;2023-02-14T06:17:56;0.78;76.72
77052;SHT30;65980;44.898;8.602;2023-02-14T06:21:18;1.16;75.06
77052;SHT30;65980;44.898;8.602;2023-02-14T06:24:36;0.56;77.53
77052;SHT30;65980;44.898;8.602;2023-02-14T06:27:45;1.09;76.16
77052;SHT30;65980;44.898;8.602;2023-02-14T06:30:51;1.30;74.32
77052;SHT30;65980;44.898;8.602;2023-02-14T06:33:54;1.19;75.81
77052;SHT30;65980;44.898;8.602;2023-02-14T06:37:00;1.37;75.73
77052;SHT30;65980;44.898;8.602;2023-02-14T06:43:26;0.78;75.94
77052;SHT30;65980;44.898;8.602;2023-02-14T06:46:31;0.76;78.11
77052;SHT30;65980;44.898;8.602;2023-02-14T06:49:38;0.65;78.93
77052;SHT30;65980;44.898;8.602;2023-02-14T07:00:32;1.72;74.73
77052;SHT30;65980;44.898;8.602;2023-02-14T07:03:39;1.39;75.57
77052;SHT30;65980;44.898;8.602;2023-02-14T07:11:17;0.57;79.55
77052;SHT30;65980;44.898;8.602;2023-02-14T07:18:36;0.36;80.75
77052;SHT30;65980;44.898;8.602;2023-02-14T07:21:44;0.43;80.36
77052;SHT30;65980;44.898;8.602;2023-02-14T07:24:51;0.31;80.89
77052;SHT30;65980;44.898;8.602;2023-02-14T07:36:24;1.81;77.47
77052;SHT30;65980;44.898;8.602;2023-02-14T07:47:30;3.16;72.02
77052;SHT30;65980;44.898;8.602;2023-02-14T07:54:31;3.58;70.46
77052;SHT30;65980;44.898;8.602;2023-02-14T07:57:36;4.00;70.13
77052;SHT30;65980;44.898;8.602;2023-02-14T08:00:43;4.80;66.91
77052;SHT30;65980;44.898;8.602;2023-02-14T08:03:48;4.73;66.88
77052;SHT30;65980;44.898;8.602;2023-02-14T08:06:56;4.77;65.41
77052;SHT30;65980;44.898;8.602;2023-02-14T08:09:59;4.75;66.15
77052;SHT30;65980;44.898;8.602;2023-02-14T08:13:03;4.23;67.73
77052;SHT30;65980;44.898;8.602;2023-02-14T08:16:08;4.45;66.32
77052;SHT30;65980;44.898;8.602;2023-02-14T08:19:15;4.77;66.18
77052;SHT30;65980;44.898;8.602;2023-02-14T08:22:19;4.86;66.34
77052;SHT30;65980;44.898;8.602;2023-02-14T08:25:24;4.80;66.06
77052;SHT30;65980;44.898;8.602;2023-02-14T08:28:31;5.30;64.10
77052;SHT30;65980;44.898;8.602;2023-02-14T08:31:36;5.63;64.86
77052;SHT30;65980;44.898;8.602;2023-02-14T08:34:40;5.94;62.24
77052;SHT30;65980;44.898;8.602;2023-02-14T08:37:45;5.94;63.05
77052;SHT30;65980;44.898;8.602;2023-02-14T08:40:49;5.97;63.69
77052;SHT30;65980;44.898;8.602;2023-02-14T08:43:53;6.58;60.79
77052;SHT30;65980;44.898;8.602;2023-02-14T08:46:57;6.66;60.88
77052;SHT30;65980;44.898;8.602;2023-02-14T08:50:02;6.31;61.79
77052;SHT30;65980;44.898;8.602;2023-02-14T08:53:09;6.49;60.21
77052;SHT30;65980;44.898;8.602;2023-02-14T08:56:14;6.23;61.97
77052;SHT30;65980;44.898;8.602;2023-02-14T08:59:18;5.35;64.87
77052;SHT30;65980;44.898;8.602;2023-02-14T09:02:21;5.89;63.78
77052;SHT30;65980;44.898;8.602;2023-02-14T09:05:25;7.01;60.83
77052;SHT30;65980;44.898;8.602;2023-02-14T09:08:29;7.54;59.18
77052;SHT30;65980;44.898;8.602;2023-02-14T09:11:34;8.04;57.20
77052;SHT30;65980;44.898;8.602;2023-02-14T09:14:41;7.87;57.39
77052;SHT30;65980;44.898;8.602;2023-02-14T09:17:48;9.34;53.57
77052;SHT30;65980;44.898;8.602;2023-02-14T09:20:53;8.79;55.35
77052;SHT30;65980;44.898;8.602;2023-02-14T09:23:57;9.38;54.00
77052;SHT30;65980;44.898;8.602;2023-02-14T09:27:05;10.04;52.10
77052;SHT30;65980;44.898;8.602;2023-02-14T09:30:09;12.20;45.41
77052;SHT30;65980;44.898;8.602;2023-02-14T09:33:14;10.76;50.42
77052;SHT30;65980;44.898;8.602;2023-02-14T09:36:18;10.11;52.39
77052;SHT30;65980;44.898;8.602;2023-02-14T09:39:42;11.01;49.96
77052;SHT30;65980;44.898;8.602;2023-02-14T09:42:59;12.50;46.66
77052;SHT30;65980;44.898;8.602;2023-02-14T09:46:05;12.86;44.21
77052;SHT30;65980;44.898;8.602;2023-02-14T09:49:15;11.75;47.83
77052;SHT30;65980;44.898;8.602;2023-02-14T09:52:20;10.96;50.21
77052;SHT30;65980;44.898;8.602;2023-02-14T09:55:28;11.11;51.28
77052;SHT30;65980;44.898;8.602;2023-02-14T09:58:43;10.55;50.45
77052;SHT30;65980;44.898;8.602;2023-02-14T10:08:38;10.73;51.71
77052;SHT30;65980;44.898;8.602;2023-02-14T10:15:28;11.06;49.23
77052;SHT30;65980;44.898;8.602;2023-02-14T10:25:39;12.42;46.41
77052;SHT30;65980;44.898;8.602;2023-02-14T10:28:46;11.93;48.00
77052;SHT30;65980;44.898;8.602;2023-02-14T10:31:59;12.60;47.50
77052;SHT30;65980;44.898;8.602;2023-02-14T10:35:05;12.86;47.04
77052;SHT30;65980;44.898;8.602;2023-02-14T10:41:48;13.08;45.93
77052;SHT30;65980;44.898;8.602;2023-02-14T10:52:44;14.71;43.16
77052;SHT30;65980;44.898;8.602;2023-02-14T10:59:07;15.32;42.02
77052;SHT30;65980;44.898;8.602;2023-02-14T11:02:17;15.80;41.45
77052;SHT30;65980;44.898;8.602;2023-02-14T11:05:31;17.49;36.61
77052;SHT30;65980;44.898;8.602;2023-02-14T11:08:40;17.08;37.15
77052;SHT30;65980;44.898;8.602;2023-02-14T11:11:53;16.22;38.37
77052;SHT30;65980;44.898;8.602;2023-02-14T11:15:08;16.55;37.90
77052;SHT30;65980;44.898;8.602;2023-02-14T11:18:20;15.93;40.45
77052;SHT30;65980;44.898;8.602;2023-02-14T11:21:24;16.53;39.43
77052;SHT30;65980;44.898;8.602;2023-02-14T11:28:53;15.70;38.62
77052;SHT30;65980;44.898;8.602;2023-02-14T11:32:14;15.34;40.62
77052;SHT30;65980;44.898;8.602;2023-02-14T11:35:23;15.32;40.05
77052;SHT30;65980;44.898;8.602;2023-02-14T11:38:33;16.93;37.58
77052;SHT30;65980;44.898;8.602;2023-02-14T11:41:45;17.80;35.89
77052;SHT30;65980;44.898;8.602;2023-02-14T11:44:54;17.31;37.38
77052;SHT30;65980;44.898;8.602;2023-02-14T11:51:57;19.06;34.42
77052;SHT30;65980;44.898;8.602;2023-02-14T11:54:56;20.61;31.87
77052;SHT30;65980;44.898;8.602;2023-02-14T11:58:02;23.09;28.63
77052;SHT30;65980;44.898;8.602;2023-02-14T12:01:29;22.30;28.73
77052;SHT30;65980;44.898;8.602;2023-02-14T12:04:44;23.57;27.08
77052;SHT30;65980;44.898;8.602;2023-02-14T12:07:53;20.78;29.76
77052;SHT30;65980;44.898;8.602;2023-02-14T12:11:04;22.31;28.23
77052;SHT30;65980;44.898;8.602;2023-02-14T12:14:19;20.52;30.37
77052;SHT30;65980;44.898;8.602;2023-02-14T12:17:34;22.40;28.35
77052;SHT30;65980;44.898;8.602;2023-02-14T12:24:42;23.48;27.30
77052;SHT30;65980;44.898;8.602;2023-02-14T12:28:21;21.38;28.89
77052;SHT30;65980;44.898;8.602;2023-02-14T12:31:29;21.86;29.99
77052;SHT30;65980;44.898;8.602;2023-02-14T12:35:05;21.54;29.62
77052;SHT30;65980;44.898;8.602;2023-02-14T12:38:33;19.17;31.69
77052;SHT30;65980;44.898;8.602;2023-02-14T12:59:48;17.41;37.27
77052;SHT30;65980;44.898;8.602;2023-02-14T13:07:38;15.78;40.14
77052;SHT30;65980;44.898;8.602;2023-02-14T13:15:31;16.70;38.24
77052;SHT30;65980;44.898;8.602;2023-02-14T13:25:28;16.17;39.51
77052;SHT30;65980;44.898;8.602;2023-02-14T13:29:14;16.45;38.12
77052;SHT30;65980;44.898;8.602;2023-02-14T13:32:11;17.18;37.41
77052;SHT30;65980;44.898;8.602;2023-02-14T13:35:20;16.61;37.53
77052;SHT30;65980;44.898;8.602;2023-02-14T13:38:32;16.94;36.10
77052;SHT30;65980;44.898;8.602;2023-02-14T13:41:38;17.00;36.72
77052;SHT30;65980;44.898;8.602;2023-02-14T13:47:48;17.00;37.49
77052;SHT30;65980;44.898;8.602;2023-02-14T13:51:07;16.61;38.81
77052;SHT30;65980;44.898;8.602;2023-02-14T13:54:27;16.58;37.46
77052;SHT30;65980;44.898;8.602;2023-02-14T13:57:32;16.47;38.09
77052;SHT30;65980;44.898;8.602;2023-02-14T14:00:40;16.68;37.58
77052;SHT30;65980;44.898;8.602;2023-02-14T14:03:52;16.58;37.57
77052;SHT30;65980;44.898;8.602;2023-02-14T14:10:15;17.00;37.88
77052;SHT30;65980;44.898;8.602;2023-02-14T14:17:03;16.35;38.40
77052;SHT30;65980;44.898;8.602;2023-02-14T14:23:33;16.58;40.27
77052;SHT30;65980;44.898;8.602;2023-02-14T14:26:39;16.89;37.93
77052;SHT30;65980;44.898;8.602;2023-02-14T14:29:54;17.06;38.61
77052;SHT30;65980;44.898;8.602;2023-02-14T14:36:36;17.18;37.16
77052;SHT30;65980;44.898;8.602;2023-02-14T14:39:48;17.17;35.40
77052;SHT30;65980;44.898;8.602;2023-02-14T14:42:53;17.14;35.19
77052;SHT30;65980;44.898;8.602;2023-02-14T14:45:58;16.93;37.54
77052;SHT30;65980;44.898;8.602;2023-02-14T14:49:04;17.06;35.76
77052;SHT30;65980;44.898;8.602;2023-02-14T14:52:16;17.68;35.11
77052;SHT30;65980;44.898;8.602;2023-02-14T14:55:27;17.68;35.49
77052;SHT30;65980;44.898;8.602;2023-02-14T14:58:34;17.63;34.89
77052;SHT30;65980;44.898;8.602;2023-02-14T15:01:39;17.08;36.59
77052;SHT30;65980;44.898;8.602;2023-02-14T15:04:44;16.97;35.23
77052;SHT30;65980;44.898;8.602;2023-02-14T15:07:48;16.47;36.79
77052;SHT30;65980;44.898;8.602;2023-02-14T15:10:58;15.85;37.81
77052;SHT30;65980;44.898;8.602;2023-02-14T15:18:10;15.89;38.23
77052;SHT30;65980;44.898;8.602;2023-02-14T15:24:48;16.18;39.70
77052;SHT30;65980;44.898;8.602;2023-02-14T15:27:55;16.32;38.50
77052;SHT30;65980;44.898;8.602;2023-02-14T15:34:33;16.40;37.02
77052;SHT30;65980;44.898;8.602;2023-02-14T15:37:48;16.32;37.44
77052;SHT30;65980;44.898;8.602;2023-02-14T15:41:32;16.14;38.60
77052;SHT30;65980;44.898;8.602;2023-02-14T16:07:30;15.21;39.57
77052;SHT30;65980;44.898;8.602;2023-02-14T16:10:42;15.20;39.55
77052;SHT30;65980;44.898;8.602;2023-02-14T16:14:23;15.12;40.18
77052;SHT30;65980;44.898;8.602;2023-02-14T16:17:41;15.10;40.71
77052;SHT30;65980;44.898;8.602;2023-02-14T16:21:08;14.94;40.76
77052;SHT30;65980;44.898;8.602;2023-02-14T16:24:44;14.99;39.69
77052;SHT30;65980;44.898;8.602;2023-02-14T16:35:35;14.62;41.75
77052;SHT30;65980;44.898;8.602;2023-02-14T16:38:51;14.58;41.28
77052;SHT30;65980;44.898;8.602;2023-02-14T16:42:04;14.52;41.79
77052;SHT30;65980;44.898;8.602;2023-02-14T16:45:34;14.35;42.26
77052;SHT30;65980;44.898;8.602;2023-02-14T17:01:24;13.66;45.28
77052;SHT30;65980;44.898;8.602;2023-02-14T17:05:03;13.29;47.30
77052;SHT30;65980;44.898;8.602;2023-02-14T17:08:56;13.34;46.55
77052;SHT30;65980;44.898;8.602;2023-02-14T17:12:59;13.07;47.70
77052;SHT30;65980;44.898;8.602;2023-02-14T17:21:39;12.92;46.80
77052;SHT30;65980;44.898;8.602;2023-02-14T17:25:51;12.79;48.93
77052;SHT30;65980;44.898;8.602;2023-02-14T17:39:31;12.32;48.83
77052;SHT30;65980;44.898;8.602;2023-02-14T17:57:11;11.84;52.47
77052;SHT30;65980;44.898;8.602;2023-02-14T18:04:42;11.61;51.74
77052;SHT30;65980;44.898;8.602;2023-02-14T18:16:04;11.10;53.18
77052;SHT30;65980;44.898;8.602;2023-02-14T18:20:50;10.90;53.59
77052;SHT30;65980;44.898;8.602;2023-02-14T18:24:56;10.94;53.71
77052;SHT30;65980;44.898;8.602;2023-02-14T18:28:01;10.89;53.54
77052;SHT30;65980;44.898;8.602;2023-02-14T18:31:13;10.79;54.35
77052;SHT30;65980;44.898;8.602;2023-02-14T18:34:18;10.69;54.17
77052;SHT30;65980;44.898;8.602;2023-02-14T18:37:22;10.32;54.84
77052;SHT30;65980;44.898;8.602;2023-02-14T18:40:26;10.15;55.72
77052;SHT30;65980;44.898;8.602;2023-02-14T18:43:30;10.20;56.66
77052;SHT30;65980;44.898;8.602;2023-02-14T18:46:34;10.27;56.22
77052;SHT30;65980;44.898;8.602;2023-02-14T18:49:39;10.24;56.85
77052;SHT30;65980;44.898;8.602;2023-02-14T18:52:43;10.04;56.25
77052;SHT30;65980;44.898;8.602;2023-02-14T18:55:46;10.12;55.85
77052;SHT30;65980;44.898;8.602;2023-02-14T18:58:53;10.27;55.52
77052;SHT30;65980;44.898;8.602;2023-02-14T19:02:01;10.30;55.16
77052;SHT30;65980;44.898;8.602;2023-02-14T19:05:09;10.20;55.61
77052;SHT30;65980;44.898;8.602;2023-02-14T19:08:13;10.08;55.71
77052;SHT30;65980;44.898;8.602;2023-02-14T19:11:19;9.91;57.49
77052;SHT30;65980;44.898;8.602;2023-02-14T19:14:24;9.89;57.50
77052;SHT30;65980;44.898;8.602;2023-02-14T19:17:28;9.72;57.31
77052;SHT30;65980;44.898;8.602;2023-02-14T19:20:31;9.72;57.03
77052;SHT30;65980;44.898;8.602;2023-02-14T19:23:39;9.73;57.05
77052;SHT30;65980;44.898;8.602;2023-02-14T19:26:44;9.70;58.14
77052;SHT30;65980;44.898;8.602;2023-02-14T19:29:49;9.77;57.30
77052;SHT30;65980;44.898;8.602;2023-02-14T19:32:53;9.77;57.08
77052;SHT30;65980;44.898;8.602;2023-02-14T19:35:57;9.72;56.79
77052;SHT30;65980;44.898;8.602;2023-02-14T19:39:01;9.13;58.94
77052;SHT30;65980;44.898;8.602;2023-02-14T19:42:06;9.10;58.84
77052;SHT30;65980;44.898;8.602;2023-02-14T19:45:10;9.14;58.96
77052;SHT30;65980;44.898;8.602;2023-02-14T19:48:15;9.22;58.80
77052;SHT30;65980;44.898;8.602;2023-02-14T19:51:27;9.05;59.24
77052;SHT30;65980;44.898;8.602;2023-02-14T19:54:36;8.67;60.59
77052;SHT30;65980;44.898;8.602;2023-02-14T19:57:41;8.20;62.17
77052;SHT30;65980;44.898;8.602;2023-02-14T20:00:55;8.37;61.70
77052;SHT30;65980;44.898;8.602;2023-02-14T20:04:01;8.44;61.66
77052;SHT30;65980;44.898;8.602;2023-02-14T20:07:08;8.46;61.39
77052;SHT30;65980;44.898;8.602;2023-02-14T20:10:11;8.59;60.67
77052;SHT30;65980;44.898;8.602;2023-02-14T20:13:16;8.50;61.21
77052;SHT30;65980;44.898;8.602;2023-02-14T20:16:22;8.28;61.67
77052;SHT30;65980;44.898;8.602;2023-02-14T20:19:29;8.37;61.35
77052;SHT30;65980;44.898;8.602;2023-02-14T20:22:34;8.35;61.79
77052;SHT30;65980;44.898;8.602;2023-02-14T20:25:38;8.25;62.34
77052;SHT30;65980;44.898;8.602;2023-02-14T20:28:43;8.39;61.54
77052;SHT30;65980;44.898;8.602;2023-02-14T20:31:49;8.31;61.48
77052;SHT30;65980;44.898;8.602;2023-02-14T20:34:53;8.35;61.36
77052;SHT30;65980;44.898;8.602;2023-02-14T20:37:57;8.21;62.03
77052;SHT30;65980;44.898;8.602;2023-02-14T20:41:06;8.03;62.71
77052;SHT30;65980;44.898;8.602;2023-02-14T20:44:10;7.90;63.06
77052;SHT30;65980;44.898;8.602;2023-02-14T20:47:14;7.63;63.82
77052;SHT30;65980;44.898;8.602;2023-02-14T20:50:20;7.41;64.11
77052;SHT30;65980;44.898;8.602;2023-02-14T20:53:24;7.90;62.09
77052;SHT30;65980;44.898;8.602;2023-02-14T20:56:30;7.85;62.53
77052;SHT30;65980;44.898;8.602;2023-02-14T20:59:34;7.85;62.40
77052;SHT30;65980;44.898;8.602;2023-02-14T21:02:39;7.94;62.08
77052;SHT30;65980;44.898;8.602;2023-02-14T21:05:46;7.91;62.22
77052;SHT30;65980;44.898;8.602;2023-02-14T21:08:51;7.79;62.99
77052;SHT30;65980;44.898;8.602;2023-02-14T21:11:54;7.58;63.91
77052;SHT30;65980;44.898;8.602;2023-02-14T21:15:00;7.61;63.45
77052;SHT30;65980;44.898;8.602;2023-02-14T21:18:05;7.14;65.03
77052;SHT30;65980;44.898;8.602;2023-02-14T21:21:22;6.99;64.80
77052;SHT30;65980;44.898;8.602;2023-02-14T21:24:26;6.23;67.26
77052;SHT30;65980;44.898;8.602;2023-02-14T21:27:32;6.30;67.87
77052;SHT30;65980;44.898;8.602;2023-02-14T21:30:36;6.49;66.92
77052;SHT30;65980;44.898;8.602;2023-02-14T21:33:41;6.40;67.30
77052;SHT30;65980;44.898;8.602;2023-02-14T21:36:45;6.52;66.85
77052;SHT30;65980;44.898;8.602;2023-02-14T21:39:49;6.59;66.16
77052;SHT30;65980;44.898;8.602;2023-02-14T21:42:54;6.59;65.91
77052;SHT30;65980;44.898;8.602;2023-02-14T21:46:01;6.25;67.03
77052;SHT30;65980;44.898;8.602;2023-02-14T21:49:10;6.02;69.26
77052;SHT30;65980;44.898;8.602;2023-02-14T21:52:33;6.30;67.30
77052;SHT30;65980;44.898;8.602;2023-02-14T21:55:37;5.90;69.13
77052;SHT30;65980;44.898;8.602;2023-02-14T21:58:46;5.90;68.51
77052;SHT30;65980;44.898;8.602;2023-02-14T22:01:51;6.02;68.11
77052;SHT30;65980;44.898;8.602;2023-02-14T22:04:55;5.73;68.65
77052;SHT30;65980;44.898;8.602;2023-02-14T22:07:59;5.93;68.57
77052;SHT30;65980;44.898;8.602;2023-02-14T22:11:07;5.93;68.20
77052;SHT30;65980;44.898;8.602;2023-02-14T22:14:12;6.04;67.64
77052;SHT30;65980;44.898;8.602;2023-02-14T22:20:25;6.34;66.46
77052;SHT30;65980;44.898;8.602;2023-02-14T22:23:30;6.34;66.63
77052;SHT30;65980;44.898;8.602;2023-02-14T22:26:35;6.44;65.38
77052;SHT30;65980;44.898;8.602;2023-02-14T22:29:44;6.41;65.19
77052;SHT30;65980;44.898;8.602;2023-02-14T22:32:47;6.44;64.71
77052;SHT30;65980;44.898;8.602;2023-02-14T22:35:55;6.42;65.24
77052;SHT30;65980;44.898;8.602;2023-02-14T22:38:59;6.27;65.33
77052;SHT30;65980;44.898;8.602;2023-02-14T22:42:03;6.20;65.54
77052;SHT30;65980;44.898;8.602;2023-02-14T22:45:10;5.92;67.48
77052;SHT30;65980;44.898;8.602;2023-02-14T22:48:15;5.76;68.26
77052;SHT30;65980;44.898;8.602;2023-02-14T22:51:21;5.83;67.09
77052;SHT30;65980;44.898;8.602;2023-02-14T22:54:27;5.66;67.73
77052;SHT30;65980;44.898;8.602;2023-02-14T22:57:31;5.54;69.16
77052;SHT30;65980;44.898;8.602;2023-02-14T23:00:35;5.48;68.75
77052;SHT30;65980;44.898;8.602;2023-02-14T23:03:39;5.42;69.52
77052;SHT30;65980;44.898;8.602;2023-02-14T23:06:44;5.23;70.36
77052;SHT30;65980;44.898;8.602;2023-02-14T23:09:49;5.56;68.05
77052;SHT30;65980;44.898;8.602;2023-02-14T23:12:54;5.31;69.78
77052;SHT30;65980;44.898;8.602;2023-02-14T23:16:17;5.51;69.33
77052;SHT30;65980;44.898;8.602;2023-02-14T23:19:39;5.12;70.21
77052;SHT30;65980;44.898;8.602;2023-02-14T23:23:03;5.26;69.67
77052;SHT30;65980;44.898;8.602;2023-02-14T23:26:06;4.77;71.17
77052;SHT30;65980;44.898;8.602;2023-02-14T23:29:10;4.95;70.94
77052;SHT30;65980;44.898;8.602;2023-02-14T23:32:15;4.79;71.16
77052;SHT30;65980;44.898;8.602;2023-02-14T23:35:19;5.00;70.52
77052;SHT30;65980;44.898;8.602;2023-02-14T23:38:23;4.90;70.96
77052;SHT30;65980;44.898;8.602;2023-02-14T23:41:27;4.61;70.91
77052;SHT30;65980;44.898;8.602;2023-02-14T23:44:50;4.69;71.38
77052;SHT30;65980;44.898;8.602;2023-02-14T23:47:54;4.96;69.83
77052;SHT30;65980;44.898;8.602;2023-02-14T23:50:58;4.95;70.57
77052;SHT30;65980;44.898;8.602;2023-02-14T23:54:04;4.47;72.03
77052;SHT30;65980;44.898;8.602;2023-02-14T23:57:08;4.29;72.92
